Time;durP1;ratioP1;P1;durP2;ratioP2;P2;SDS_P1;SDS_P2;PMS_P1;PMS_P2;Temp;Humidity;BMP_temperature;BMP_pressure;BME280_temperature;BME280_humidity;BME280_pressure;Samples;Min_cycle;Max_cycle;Signal;HPM_P1;HPM_P2
2023/09/25 00:00:49;;;;;;;1.90;0.50;;;14.20;99.90;;;;;;5001849;28;20124;-71
2023/09/25 00:03:15;;;;;;;1.75;0.60;;;14.20;99.90;;;;;;4998471;28;20386;-71
2023/09/25 00:05:41;;;;;;;1.30;0.45;;;14.20;99.90;;;;;;5005874;28;20537;-71
2023/09/25 00:08:07;;;;;;;2.13;0.65;;;14.20;99.90;;;;;;5001776;28;20111;-71
2023/09/25 00:10:33;;;;;;;2.28;0.70;;;14.20;99.90;;;;;;5001656;28;20057;-71
2023/09/25 00:13:00;;;;;;;3.00;0.63;;;14.20;99.90;;;;;;5003583;28;20398;-71
2023/09/25 00:15:25;;;;;;;1.67;0.65;;;14.20;99.90;;;;;;4998032;28;20061;-71
2023/09/25 00:17:51;;;;;;;6.05;0.70;;;14.10;99.90;;;;;;4999480;28;20501;-71
2023/09/25 00:20:20;;;;;;;3.10;0.75;;;14.10;99.90;;;;;;5001095;28;20423;-73
2023/09/25 00:22:46;;;;;;;1.65;0.63;;;14.10;99.90;;;;;;4995927;28;20402;-72
2023/09/25 00:25:12;;;;;;;2.92;0.47;;;14.10;99.90;;;;;;5001037;28;20371;-71
2023/09/25 00:27:38;;;;;;;2.17;0.82;;;14.10;99.90;;;;;;5001088;28;20048;-71
2023/09/25 00:30:08;;;;;;;3.15;0.70;;;14.00;99.90;;;;;;5000482;28;20034;-71
2023/09/25 00:32:34;;;;;;;1.23;0.60;;;14.00;99.90;;;;;;5004988;28;20573;-71
2023/09/25 00:35:01;;;;;;;1.98;0.50;;;14.00;99.90;;;;;;5003287;28;20038;-72
2023/09/25 00:37:27;;;;;;;6.18;1.10;;;14.00;99.90;;;;;;5002831;28;20034;-72
2023/09/25 00:39:52;;;;;;;3.47;1.58;;;14.00;99.90;;;;;;5001466;28;20038;-71
2023/09/25 00:42:18;;;;;;;3.70;1.33;;;13.90;99.90;;;;;;5000838;28;20038;-72
2023/09/25 00:44:44;;;;;;;2.80;0.40;;;14.00;99.90;;;;;;5004761;28;20598;-72
2023/09/25 00:47:09;;;;;;;1.65;0.73;;;14.00;99.90;;;;;;5000170;28;20509;-71
2023/09/25 00:49:36;;;;;;;2.65;1.10;;;13.90;99.90;;;;;;4997327;28;20034;-73
2023/09/25 00:52:02;;;;;;;1.92;0.47;;;13.90;99.90;;;;;;5005892;28;20360;-71
2023/09/25 00:54:33;;;;;;;2.50;0.70;;;13.90;99.90;;;;;;5003558;28;20124;-71
2023/09/25 00:57:00;;;;;;;1.75;0.70;;;13.90;99.90;;;;;;5009135;28;20445;-71
2023/09/25 00:59:26;;;;;;;2.10;0.70;;;13.90;99.90;;;;;;5008712;28;20393;-71
2023/09/25 01:01:52;;;;;;;4.07;0.70;;;13.90;99.90;;;;;;4997453;28;20044;-71
2023/09/25 01:04:18;;;;;;;2.05;0.60;;;13.90;99.90;;;;;;4994929;28;20030;-71
2023/09/25 01:06:44;;;;;;;7.50;0.98;;;13.90;99.90;;;;;;4996706;28;20121;-71
2023/09/25 01:09:12;;;;;;;1.98;0.70;;;13.90;99.90;;;;;;4995425;28;20461;-72
2023/09/25 01:11:38;;;;;;;2.70;0.82;;;13.90;99.90;;;;;;5000703;28;20502;-72
2023/09/25 01:14:04;;;;;;;2.97;0.50;;;13.90;99.90;;;;;;5001907;28;20030;-71
2023/09/25 01:16:30;;;;;;;2.03;0.88;;;13.80;99.90;;;;;;4997686;28;20050;-71
2023/09/25 01:18:55;;;;;;;2.40;0.80;;;13.80;99.90;;;;;;4998319;28;20041;-71
2023/09/25 01:21:22;;;;;;;2.17;0.43;;;13.80;99.90;;;;;;5005813;28;20153;-73
2023/09/25 01:23:47;;;;;;;1.90;0.60;;;13.80;99.90;;;;;;5007922;28;20030;-73
2023/09/25 01:26:13;;;;;;;1.83;0.82;;;13.80;99.90;;;;;;5009241;28;20545;-71
2023/09/25 01:28:38;;;;;;;2.55;0.60;;;13.80;99.90;;;;;;5010718;28;20080;-71
2023/09/25 01:31:07;;;;;;;1.15;0.50;;;13.80;99.90;;;;;;5011727;28;20037;-73
2023/09/25 01:33:33;;;;;;;1.40;0.50;;;13.80;99.90;;;;;;5010276;28;20525;-71
2023/09/25 01:35:58;;;;;;;2.33;0.77;;;13.70;99.90;;;;;;5020198;28;20033;-72
2023/09/25 01:38:24;;;;;;;2.65;1.08;;;13.80;99.90;;;;;;5012881;28;20029;-72
2023/09/25 01:40:49;;;;;;;1.80;0.63;;;13.70;99.90;;;;;;5008914;28;20033;-72
2023/09/25 01:43:15;;;;;;;1.83;0.75;;;13.70;99.90;;;;;;5017152;28;20041;-72
2023/09/25 01:45:40;;;;;;;0.88;0.57;;;13.70;99.90;;;;;;5007285;28;20062;-71
2023/09/25 01:48:06;;;;;;;3.08;1.27;;;13.70;99.90;;;;;;5013632;28;20033;-70
2023/09/25 01:50:32;;;;;;;1.13;0.55;;;13.70;99.90;;;;;;5007806;28;20026;-70
2023/09/25 01:53:00;;;;;;;2.03;0.47;;;13.60;99.90;;;;;;5009199;28;20034;-71
2023/09/25 01:55:40;;;;;;;1.75;0.90;;;13.60;99.90;;;;;;5011737;28;20109;-72
2023/09/25 01:58:06;;;;;;;1.33;0.50;;;13.50;99.90;;;;;;5004450;28;20026;-71
2023/09/25 02:00:32;;;;;;;1.52;0.52;;;13.50;99.90;;;;;;5006992;28;20030;-70
2023/09/25 02:02:58;;;;;;;2.15;0.80;;;13.50;99.90;;;;;;5007492;28;20030;-70
2023/09/25 02:05:23;;;;;;;2.05;0.77;;;13.50;99.90;;;;;;5013169;28;20041;-73
2023/09/25 02:07:49;;;;;;;1.77;0.60;;;13.50;99.90;;;;;;5018353;28;20050;-70
2023/09/25 02:10:15;;;;;;;4.88;0.60;;;13.50;99.90;;;;;;5009308;28;20041;-70
2023/09/25 02:12:40;;;;;;;1.13;0.57;;;13.50;99.90;;;;;;5007637;28;20039;-74
2023/09/25 02:15:08;;;;;;;2.47;0.60;;;13.50;99.90;;;;;;5008212;28;20114;-71
2023/09/25 02:17:34;;;;;;;3.20;1.27;;;13.50;99.90;;;;;;5009151;28;20577;-71
2023/09/25 02:22:46;;;;;;;2.42;1.20;;;13.50;99.90;;;;;;5008596;28;20049;-71
2023/09/25 02:25:12;;;;;;;1.48;0.45;;;13.50;99.90;;;;;;5015495;28;20494;-71
2023/09/25 02:27:39;;;;;;;2.83;0.90;;;13.40;99.90;;;;;;5009197;28;20069;-71
2023/09/25 02:30:10;;;;;;;2.20;0.70;;;13.30;99.90;;;;;;5005927;28;20080;-71
2023/09/25 02:32:37;;;;;;;3.30;0.65;;;13.40;99.90;;;;;;5007591;28;20096;-71
2023/09/25 02:35:04;;;;;;;4.60;0.57;;;13.30;99.90;;;;;;5004934;28;20143;-71
2023/09/25 02:37:33;;;;;;;1.13;0.50;;;13.40;99.90;;;;;;5008120;28;20061;-72
2023/09/25 02:39:59;;;;;;;2.35;0.60;;;13.40;99.90;;;;;;5008717;28;20484;-72
2023/09/25 02:42:24;;;;;;;1.02;0.45;;;13.30;99.90;;;;;;5008529;28;20049;-71
2023/09/25 02:44:51;;;;;;;2.33;0.57;;;13.40;99.90;;;;;;5009175;28;20029;-72
2023/09/25 02:47:17;;;;;;;1.30;0.45;;;13.30;99.90;;;;;;5006490;28;20049;-72
2023/09/25 02:49:42;;;;;;;1.55;0.70;;;13.40;99.90;;;;;;5007565;28;20030;-72
2023/09/25 02:52:08;;;;;;;1.88;0.95;;;13.40;99.90;;;;;;5006130;28;20033;-72
2023/09/25 02:54:33;;;;;;;2.28;0.60;;;13.40;99.90;;;;;;5007603;28;20147;-72
2023/09/25 02:56:59;;;;;;;2.97;0.70;;;13.40;99.90;;;;;;5008608;28;20045;-72
2023/09/25 02:59:25;;;;;;;2.60;0.60;;;13.30;99.90;;;;;;5005242;28;20287;-72
2023/09/25 03:01:50;;;;;;;2.85;1.00;;;13.30;99.90;;;;;;5010386;28;20116;-72
2023/09/25 03:04:16;;;;;;;4.00;0.80;;;13.30;99.90;;;;;;5004110;28;20560;-70
2023/09/25 03:06:41;;;;;;;1.05;0.50;;;13.40;99.90;;;;;;5006682;28;20442;-70
2023/09/25 03:09:07;;;;;;;4.25;0.93;;;13.40;99.90;;;;;;5017791;28;20030;-72
2023/09/25 03:11:33;;;;;;;4.43;1.00;;;13.40;99.90;;;;;;5006972;28;20046;-69
2023/09/25 03:13:58;;;;;;;4.00;0.63;;;13.50;99.90;;;;;;5006341;28;20034;-71
2023/09/25 03:16:24;;;;;;;3.10;0.95;;;13.40;99.90;;;;;;5007996;28;20030;-70
2023/09/25 03:18:50;;;;;;;2.60;0.80;;;13.40;99.90;;;;;;5008035;28;20038;-70
2023/09/25 03:21:16;;;;;;;1.50;0.40;;;13.40;99.90;;;;;;5006476;28;20068;-69
2023/09/25 03:23:42;;;;;;;2.05;0.60;;;13.40;99.90;;;;;;5004567;28;20033;-70
2023/09/25 03:26:19;;;;;;;1.42;0.70;;;13.40;99.90;;;;;;5004486;28;20030;-70
2023/09/25 03:28:45;;;;;;;1.75;0.50;;;13.40;99.90;;;;;;5003325;28;20151;-70
2023/09/25 03:31:12;;;;;;;1.98;0.75;;;13.40;99.90;;;;;;5007788;28;20034;-71
2023/09/25 03:33:39;;;;;;;0.75;0.30;;;13.50;99.90;;;;;;5010797;28;20018;-72
2023/09/25 03:36:05;;;;;;;2.55;0.75;;;13.40;99.90;;;;;;5007111;28;20034;-70
2023/09/25 03:38:31;;;;;;;2.90;1.20;;;13.40;99.90;;;;;;5002277;28;20102;-72
2023/09/25 03:40:57;;;;;;;3.88;0.80;;;13.40;99.90;;;;;;5011960;28;20053;-70
2023/09/25 03:43:22;;;;;;;1.48;0.60;;;13.40;99.90;;;;;;5003046;28;20073;-70
2023/09/25 03:45:48;;;;;;;1.35;0.47;;;13.30;99.90;;;;;;5000769;28;20514;-70
2023/09/25 03:48:14;;;;;;;1.63;0.52;;;13.30;99.90;;;;;;5003574;28;20049;-70
2023/09/25 03:50:39;;;;;;;1.00;0.50;;;13.20;99.90;;;;;;5009934;28;20037;-72
2023/09/25 03:53:05;;;;;;;4.32;0.90;;;13.20;99.90;;;;;;5011779;28;20033;-72
2023/09/25 03:55:31;;;;;;;1.52;0.75;;;13.30;99.90;;;;;;5006732;28;20049;-72
2023/09/25 03:57:56;;;;;;;6.95;0.90;;;13.20;99.90;;;;;;5002616;28;20617;-71
2023/09/25 04:00:24;;;;;;;1.73;0.63;;;13.20;99.90;;;;;;5005667;28;20375;-77
2023/09/25 04:02:50;;;;;;;1.75;0.77;;;13.20;99.90;;;;;;5007290;28;20162;-72
2023/09/25 04:05:16;;;;;;;2.17;0.60;;;13.20;99.90;;;;;;5007364;28;20034;-70
2023/09/25 04:07:42;;;;;;;5.47;0.57;;;13.20;99.90;;;;;;5006834;28;20042;-70
2023/09/25 04:10:08;;;;;;;3.03;0.50;;;13.10;99.90;;;;;;5004008;28;20489;-70
2023/09/25 04:12:34;;;;;;;1.75;0.98;;;13.10;99.90;;;;;;5000657;28;20451;-70
2023/09/25 04:15:00;;;;;;;3.92;0.57;;;13.00;99.90;;;;;;5012834;28;20052;-70
2023/09/25 04:17:27;;;;;;;1.73;0.70;;;13.10;99.90;;;;;;5004906;28;20057;-70
2023/09/25 04:19:53;;;;;;;2.08;0.73;;;13.10;99.90;;;;;;5005365;28;20037;-72
2023/09/25 04:22:20;;;;;;;2.03;0.50;;;13.00;99.90;;;;;;5004086;28;20052;-70
2023/09/25 04:24:46;;;;;;;1.30;0.57;;;13.10;99.90;;;;;;5006974;28;20041;-72
2023/09/25 04:27:11;;;;;;;3.30;0.70;;;13.10;99.90;;;;;;5003702;28;20045;-70
2023/09/25 04:29:38;;;;;;;0.90;0.35;;;13.10;99.90;;;;;;5008859;28;20126;-71
2023/09/25 04:32:06;;;;;;;4.13;0.57;;;13.10;99.90;;;;;;5006504;28;20120;-71
2023/09/25 04:34:31;;;;;;;3.88;0.63;;;13.10;99.90;;;;;;5008367;28;20463;-70
2023/09/25 04:36:58;;;;;;;2.63;0.47;;;13.00;99.90;;;;;;5007013;28;20062;-72
2023/09/25 04:39:24;;;;;;;1.10;0.40;;;13.10;99.90;;;;;;4999833;28;20030;-70
2023/09/25 04:41:50;;;;;;;3.33;0.75;;;13.00;99.90;;;;;;5002031;28;20088;-70
2023/09/25 04:44:16;;;;;;;1.98;0.70;;;13.10;99.90;;;;;;5006448;28;20034;-70
2023/09/25 04:46:41;;;;;;;1.85;0.43;;;13.00;99.90;;;;;;5001142;28;20464;-71
2023/09/25 04:49:08;;;;;;;1.50;0.60;;;13.10;99.90;;;;;;5013267;28;20140;-70
2023/09/25 04:51:34;;;;;;;1.48;0.63;;;13.00;99.90;;;;;;5006680;28;20615;-69
2023/09/25 04:54:00;;;;;;;2.42;0.70;;;13.00;99.90;;;;;;5009065;28;20037;-72
2023/09/25 04:56:27;;;;;;;1.58;0.57;;;13.00;99.90;;;;;;5000242;28;20038;-70
2023/09/25 04:58:53;;;;;;;1.75;0.77;;;13.00;99.90;;;;;;5005817;28;20411;-72
2023/09/25 05:01:19;;;;;;;1.00;0.65;;;13.00;99.90;;;;;;5002637;28;20030;-70
2023/09/25 05:03:45;;;;;;;3.22;1.02;;;13.00;99.90;;;;;;5006694;28;20038;-72
2023/09/25 05:06:13;;;;;;;1.27;0.47;;;13.00;99.90;;;;;;5007210;28;20129;-73
2023/09/25 05:08:39;;;;;;;2.60;1.13;;;13.00;99.90;;;;;;5004419;28;20065;-72
2023/09/25 05:11:05;;;;;;;1.27;0.50;;;12.90;99.90;;;;;;5006850;28;20054;-72
2023/09/25 05:13:32;;;;;;;3.03;0.50;;;12.90;99.90;;;;;;5011173;28;20073;-70
2023/09/25 05:15:57;;;;;;;3.20;0.60;;;13.00;99.90;;;;;;5008640;28;20185;-71
2023/09/25 05:18:23;;;;;;;2.05;0.55;;;12.90;99.90;;;;;;5009945;28;20482;-72
2023/09/25 05:20:49;;;;;;;2.78;0.80;;;12.90;99.90;;;;;;5013815;28;20044;-70
2023/09/25 05:23:14;;;;;;;3.42;0.50;;;12.90;99.90;;;;;;5010730;28;20615;-70
2023/09/25 05:25:40;;;;;;;3.00;0.63;;;13.00;99.90;;;;;;5013448;28;20038;-70
2023/09/25 05:28:05;;;;;;;3.85;0.70;;;13.00;99.90;;;;;;5008653;28;20123;-71
2023/09/25 05:30:31;;;;;;;2.85;0.70;;;12.90;99.90;;;;;;5016166;28;20065;-71
2023/09/25 05:32:56;;;;;;;1.27;0.30;;;13.00;99.90;;;;;;5012495;28;20052;-70
2023/09/25 05:35:22;;;;;;;1.50;0.45;;;13.00;99.90;;;;;;5015018;28;20076;-72
2023/09/25 05:37:48;;;;;;;2.38;0.60;;;13.00;99.90;;;;;;5006988;28;20494;-71
2023/09/25 05:40:15;;;;;;;1.60;0.63;;;13.00;99.90;;;;;;5008770;28;20120;-71
2023/09/25 05:42:42;;;;;;;2.88;0.75;;;13.00;99.90;;;;;;5009426;28;20490;-70
2023/09/25 05:45:08;;;;;;;1.45;0.50;;;13.00;99.90;;;;;;5015470;28;20671;-71
2023/09/25 05:47:34;;;;;;;2.78;0.60;;;13.00;99.90;;;;;;5019818;28;20516;-70
2023/09/25 05:50:01;;;;;;;1.95;0.65;;;13.00;99.90;;;;;;5014767;28;21621;-70
2023/09/25 05:52:26;;;;;;;1.15;0.65;;;13.10;99.90;;;;;;5021586;28;20030;-71
2023/09/25 05:54:52;;;;;;;4.30;1.00;;;13.10;99.90;;;;;;5011317;28;20104;-69
2023/09/25 05:57:18;;;;;;;3.47;0.82;;;13.10;99.90;;;;;;5009517;28;20064;-73
2023/09/25 05:59:44;;;;;;;4.25;0.70;;;13.10;99.90;;;;;;5007399;28;20038;-70
2023/09/25 06:02:09;;;;;;;2.55;0.75;;;13.10;99.90;;;;;;5009586;28;20034;-71
2023/09/25 06:04:36;;;;;;;3.47;1.15;;;13.10;99.90;;;;;;5009198;28;20121;-70
2023/09/25 06:07:05;;;;;;;2.78;0.88;;;13.20;99.90;;;;;;5013985;28;20355;-72
2023/09/25 06:09:34;;;;;;;1.42;0.40;;;13.20;99.90;;;;;;5015519;28;20041;-71
2023/09/25 06:12:00;;;;;;;1.92;0.57;;;13.20;99.90;;;;;;5017049;28;20161;-70
2023/09/25 06:14:28;;;;;;;3.00;0.50;;;13.20;99.90;;;;;;5011712;28;20046;-71
2023/09/25 06:16:56;;;;;;;2.38;0.80;;;13.30;99.90;;;;;;5001846;28;20034;-72
2023/09/25 06:19:22;;;;;;;1.63;0.52;;;13.30;99.90;;;;;;5005140;28;20569;-70
2023/09/25 06:21:47;;;;;;;2.28;0.60;;;13.30;99.90;;;;;;5001531;28;20141;-71
2023/09/25 06:24:14;;;;;;;4.45;1.45;;;13.30;99.90;;;;;;5006063;28;20564;-71
2023/09/25 06:26:40;;;;;;;2.47;0.70;;;13.30;99.90;;;;;;5018060;28;20132;-71
2023/09/25 06:29:08;;;;;;;2.13;0.50;;;13.40;99.90;;;;;;5013985;28;20029;-71
2023/09/25 06:31:36;;;;;;;3.10;0.80;;;13.40;99.90;;;;;;5004929;28;20072;-71
2023/09/25 06:34:02;;;;;;;3.58;0.55;;;13.40;99.90;;;;;;5009814;28;20042;-71
2023/09/25 06:36:27;;;;;;;1.13;0.38;;;13.40;99.90;;;;;;5004195;28;20525;-71
2023/09/25 06:38:53;;;;;;;4.97;1.20;;;13.50;99.90;;;;;;5006434;28;20038;-71
2023/09/25 06:41:19;;;;;;;1.33;0.52;;;13.60;99.90;;;;;;5005116;28;20397;-71
2023/09/25 06:43:45;;;;;;;2.22;0.90;;;13.60;99.90;;;;;;5003974;28;20042;-71
2023/09/25 06:46:11;;;;;;;1.42;0.50;;;13.60;99.90;;;;;;5017024;28;20512;-71
2023/09/25 06:48:36;;;;;;;1.42;0.68;;;13.70;99.90;;;;;;5011842;28;20035;-71
2023/09/25 06:51:02;;;;;;;6.30;0.98;;;13.70;99.90;;;;;;5006037;28;20030;-71
2023/09/25 06:53:27;;;;;;;4.90;0.70;;;13.80;99.90;;;;;;5010201;28;20049;-71
2023/09/25 06:55:53;;;;;;;1.75;0.70;;;13.80;99.90;;;;;;5004469;28;20100;-71
2023/09/25 06:58:18;;;;;;;2.42;0.73;;;13.80;99.90;;;;;;5009003;28;20025;-71
2023/09/25 07:00:47;;;;;;;1.38;0.63;;;13.90;99.90;;;;;;5017678;28;20087;-71
2023/09/25 07:03:13;;;;;;;1.58;0.43;;;13.90;99.90;;;;;;5004745;28;20058;-71
2023/09/25 07:05:40;;;;;;;2.42;0.90;;;14.00;99.90;;;;;;5001186;28;20036;-71
2023/09/25 07:08:06;;;;;;;1.13;0.60;;;14.00;99.90;;;;;;5001303;28;20060;-71
2023/09/25 07:10:32;;;;;;;1.92;0.63;;;14.10;99.90;;;;;;5002006;28;20505;-71
2023/09/25 07:12:58;;;;;;;1.20;0.50;;;14.10;99.90;;;;;;5003002;28;20034;-72
2023/09/25 07:15:24;;;;;;;0.90;0.40;;;14.20;99.90;;;;;;5007917;28;20520;-71
2023/09/25 07:17:49;;;;;;;2.97;0.55;;;14.30;99.90;;;;;;5003182;28;20044;-71
2023/09/25 07:20:15;;;;;;;1.67;0.70;;;14.30;99.90;;;;;;5002695;28;20718;-71
2023/09/25 07:22:42;;;;;;;3.25;0.93;;;14.40;99.90;;;;;;5004591;28;20117;-71
2023/09/25 07:25:08;;;;;;;1.98;0.60;;;14.40;99.90;;;;;;5006879;28;20128;-71
2023/09/25 07:27:34;;;;;;;1.10;0.50;;;14.40;99.90;;;;;;5003036;28;20478;-71
2023/09/25 07:30:01;;;;;;;2.08;0.65;;;14.40;99.90;;;;;;5002211;28;20041;-71
2023/09/25 07:32:28;;;;;;;2.10;0.60;;;14.50;99.90;;;;;;5004624;28;20040;-71
2023/09/25 07:34:54;;;;;;;3.28;0.88;;;14.60;99.90;;;;;;5010475;28;20088;-71
2023/09/25 07:37:19;;;;;;;1.23;0.60;;;14.70;99.90;;;;;;5004416;28;20034;-71
2023/09/25 07:39:45;;;;;;;1.30;0.60;;;14.70;99.90;;;;;;5005270;28;20065;-71
2023/09/25 07:42:11;;;;;;;3.08;0.70;;;14.80;99.90;;;;;;5010695;28;20041;-71
2023/09/25 07:44:38;;;;;;;3.17;0.77;;;14.80;99.90;;;;;;5001167;28;20573;-71
2023/09/25 07:47:10;;;;;;;3.75;1.05;;;14.90;99.90;;;;;;5008598;28;20029;-71
2023/09/25 07:49:40;;;;;;;1.05;0.57;;;14.90;99.90;;;;;;4996104;28;20092;-70
2023/09/25 07:52:15;;;;;;;5.35;0.75;;;15.00;99.90;;;;;;5004545;28;20116;-71
2023/09/25 07:54:45;;;;;;;0.88;0.45;;;15.00;99.90;;;;;;5001548;28;20034;-71
2023/09/25 07:57:13;;;;;;;1.15;0.55;;;15.10;99.90;;;;;;5002503;28;20042;-70
2023/09/25 07:59:39;;;;;;;2.47;0.60;;;15.10;99.90;;;;;;5000342;28;20498;-72
2023/09/25 08:02:05;;;;;;;4.25;0.70;;;15.20;99.90;;;;;;4999921;28;20633;-71
2023/09/25 08:04:30;;;;;;;2.33;0.80;;;15.20;99.90;;;;;;5009005;28;20026;-70
2023/09/25 08:06:56;;;;;;;1.65;0.60;;;15.20;99.90;;;;;;4996859;28;20092;-70
2023/09/25 08:09:22;;;;;;;2.05;0.57;;;15.30;99.90;;;;;;5002618;28;20536;-70
2023/09/25 08:11:48;;;;;;;3.10;0.85;;;15.30;99.90;;;;;;4998936;28;20076;-72
2023/09/25 08:14:14;;;;;;;1.65;0.60;;;15.30;99.90;;;;;;5015803;28;20025;-70
2023/09/25 08:16:39;;;;;;;1.33;0.50;;;15.30;99.90;;;;;;5013483;28;20112;-71
2023/09/25 08:19:05;;;;;;;2.95;0.50;;;15.40;99.90;;;;;;5013359;28;20063;-69
2023/09/25 08:21:31;;;;;;;2.20;1.17;;;15.40;99.90;;;;;;5012004;28;20121;-71
2023/09/25 08:23:56;;;;;;;5.63;1.23;;;15.40;99.90;;;;;;5004893;28;20057;-71
2023/09/25 08:26:22;;;;;;;1.83;0.52;;;15.40;99.90;;;;;;5008705;28;20031;-71
2023/09/25 08:28:48;;;;;;;2.65;0.85;;;15.50;99.90;;;;;;5010853;28;20075;-72
2023/09/25 08:31:13;;;;;;;3.47;0.95;;;15.50;99.90;;;;;;5004175;28;20041;-71
2023/09/25 08:33:40;;;;;;;2.33;0.55;;;15.60;99.90;;;;;;5013341;28;20398;-72
2023/09/25 08:36:11;;;;;;;1.15;0.30;;;15.70;99.90;;;;;;5006591;28;20556;-72
2023/09/25 08:38:37;;;;;;;2.55;0.63;;;15.80;99.90;;;;;;5005957;28;20483;-72
2023/09/25 08:41:02;;;;;;;2.33;1.13;;;15.90;99.90;;;;;;5018217;28;20045;-72
2023/09/25 08:43:28;;;;;;;1.27;0.38;;;16.00;99.90;;;;;;5012027;28;20029;-72
2023/09/25 08:45:56;;;;;;;1.52;0.88;;;16.10;99.90;;;;;;5010396;28;20037;-72
2023/09/25 08:48:21;;;;;;;2.42;0.35;;;16.20;99.90;;;;;;5010112;28;20045;-72
2023/09/25 08:50:49;;;;;;;1.15;0.47;;;16.30;99.90;;;;;;5001118;28;20034;-72
2023/09/25 08:53:14;;;;;;;1.42;0.63;;;16.40;99.90;;;;;;5015569;28;20042;-72
2023/09/25 08:55:42;;;;;;;3.70;0.60;;;16.50;99.90;;;;;;5021746;28;20057;-72
2023/09/25 08:58:08;;;;;;;1.70;0.40;;;16.60;99.90;;;;;;5012715;28;20640;-71
2023/09/25 09:00:34;;;;;;;1.05;0.38;;;16.60;99.90;;;;;;5011501;28;20121;-71
2023/09/25 09:03:00;;;;;;;6.10;0.73;;;16.60;99.90;;;;;;5001225;28;20053;-71
2023/09/25 09:05:26;;;;;;;2.42;0.90;;;16.60;99.90;;;;;;5014694;28;20022;-70
2023/09/25 09:07:59;;;;;;;1.52;0.50;;;16.60;99.90;;;;;;5012764;28;20439;-72
2023/09/25 09:10:33;;;;;;;1.45;0.93;;;16.70;99.90;;;;;;5003935;28;20025;-71
2023/09/25 09:12:59;;;;;;;0.80;0.40;;;16.90;99.90;;;;;;5021056;28;20375;-72
2023/09/25 09:15:26;;;;;;;1.20;0.50;;;16.90;99.90;;;;;;5016915;28;20033;-71
2023/09/25 09:17:54;;;;;;;2.97;0.80;;;16.90;99.90;;;;;;5002323;28;20617;-72
2023/09/25 09:20:22;;;;;;;1.45;0.43;;;17.00;99.90;;;;;;5014399;28;20039;-71
2023/09/25 09:22:51;;;;;;;1.88;0.60;;;17.00;99.90;;;;;;5004763;28;20041;-72
2023/09/25 09:25:27;;;;;;;1.45;0.60;;;17.00;99.90;;;;;;5015966;28;20041;-71
2023/09/25 09:27:53;;;;;;;2.45;0.50;;;17.00;99.90;;;;;;5016784;28;20034;-71
2023/09/25 09:30:24;;;;;;;2.95;0.60;;;17.10;99.90;;;;;;5013368;28;20037;-71
2023/09/25 09:32:50;;;;;;;3.75;1.08;;;17.10;99.90;;;;;;5008087;28;20046;-71
2023/09/25 09:35:25;;;;;;;3.10;0.70;;;17.10;99.90;;;;;;5016656;28;20057;-71
2023/09/25 09:37:55;;;;;;;1.45;0.52;;;17.20;99.90;;;;;;5008082;28;20088;-72
2023/09/25 09:40:23;;;;;;;0.90;0.35;;;17.20;99.90;;;;;;5007561;28;20034;-72
2023/09/25 09:42:50;;;;;;;2.63;0.50;;;17.30;99.90;;;;;;5012885;28;20095;-73
2023/09/25 09:45:16;;;;;;;3.20;0.60;;;17.40;99.90;;;;;;5023369;28;20064;-70
2023/09/25 09:47:44;;;;;;;2.13;0.85;;;17.40;99.90;;;;;;5009665;28;20410;-74
2023/09/25 09:50:11;;;;;;;1.35;0.70;;;17.50;99.90;;;;;;5018381;28;20168;-72
2023/09/25 09:52:39;;;;;;;1.55;0.63;;;17.50;99.90;;;;;;5005162;28;20049;-72
2023/09/25 09:55:08;;;;;;;1.38;0.47;;;17.60;99.90;;;;;;5011124;28;20029;-71
2023/09/25 09:57:35;;;;;;;2.45;0.70;;;17.70;99.90;;;;;;5018396;28;20642;-72
2023/09/25 10:00:00;;;;;;;1.55;0.73;;;17.60;99.90;;;;;;5008056;28;20569;-71
2023/09/25 10:02:30;;;;;;;3.40;0.90;;;17.60;99.90;;;;;;5024560;28;20038;-71
2023/09/25 10:04:57;;;;;;;1.48;0.95;;;17.60;99.90;;;;;;5013645;28;20037;-70
2023/09/25 10:07:23;;;;;;;3.90;1.50;;;17.80;99.90;;;;;;5011859;28;20660;-70
2023/09/25 10:10:04;;;;;;;1.58;0.60;;;17.80;99.90;;;;;;5017388;28;20060;-71
2023/09/25 10:12:49;;;;;;;3.08;0.70;;;17.80;99.90;;;;;;5018416;28;20831;-70
2023/09/25 10:15:27;;;;;;;2.70;0.65;;;17.90;99.90;;;;;;5009404;28;20033;-70
2023/09/25 10:17:54;;;;;;;1.67;0.52;;;17.90;99.90;;;;;;5002571;28;20114;-71
2023/09/25 10:20:41;;;;;;;3.50;0.52;;;17.90;99.90;;;;;;5017474;28;20022;-71
2023/09/25 10:23:06;;;;;;;6.25;0.80;;;18.00;99.90;;;;;;5010476;28;20045;-72
2023/09/25 10:25:52;;;;;;;3.22;0.50;;;18.00;99.90;;;;;;5025986;28;20405;-71
2023/09/25 10:28:23;;;;;;;1.70;0.40;;;18.10;99.90;;;;;;4997417;28;20033;-72
2023/09/25 10:30:49;;;;;;;2.85;0.70;;;18.20;99.90;;;;;;5007332;28;20111;-72
2023/09/25 10:33:16;;;;;;;1.90;0.70;;;18.20;99.90;;;;;;5021458;28;20021;-72
2023/09/25 10:35:44;;;;;;;1.83;0.47;;;18.30;99.90;;;;;;5021442;28;20051;-72
2023/09/25 10:38:21;;;;;;;1.63;0.50;;;18.40;99.90;;;;;;5017962;28;20091;-72
2023/09/25 10:40:52;;;;;;;2.10;0.80;;;18.50;99.90;;;;;;4999844;28;20041;-72
2023/09/25 10:43:19;;;;;;;6.70;1.00;;;18.60;99.90;;;;;;5006325;28;20034;-70
2023/09/25 10:45:45;;;;;;;3.95;0.90;;;18.60;99.90;;;;;;5006205;28;20395;-71
2023/09/25 10:48:11;;;;;;;2.83;0.70;;;18.60;99.90;;;;;;5023302;28;20030;-70
2023/09/25 10:50:38;;;;;;;4.68;0.70;;;18.70;99.90;;;;;;5004453;28;20091;-72
2023/09/25 10:53:14;;;;;;;2.67;0.50;;;18.70;99.90;;;;;;5001439;28;20037;-70
2023/09/25 10:55:40;;;;;;;2.83;0.77;;;18.70;99.90;;;;;;5005627;28;20794;-70
2023/09/25 10:58:09;;;;;;;3.58;1.08;;;18.80;99.90;;;;;;5009913;28;20033;-70
2023/09/25 11:00:37;;;;;;;2.80;0.60;;;18.80;99.90;;;;;;5001724;28;20033;-72
2023/09/25 11:03:04;;;;;;;14.15;1.17;;;18.90;99.90;;;;;;5006547;28;20076;-73
2023/09/25 11:05:31;;;;;;;2.95;0.75;;;18.90;99.90;;;;;;5014773;28;20040;-72
2023/09/25 11:07:56;;;;;;;2.28;0.90;;;19.00;99.90;;;;;;5005982;28;20030;-72
2023/09/25 11:10:28;;;;;;;4.50;0.77;;;19.10;99.90;;;;;;5019154;28;20739;-71
2023/09/25 11:12:53;;;;;;;3.42;1.02;;;19.10;99.90;;;;;;5002673;28;20605;-72
2023/09/25 11:15:20;;;;;;;1.08;0.50;;;19.00;99.90;;;;;;5002946;28;20129;-71
2023/09/25 11:17:46;;;;;;;3.80;1.10;;;19.00;99.90;;;;;;5005365;28;20125;-72
2023/09/25 11:20:29;;;;;;;7.82;0.93;;;18.90;99.90;;;;;;5014374;28;20037;-72
2023/09/25 11:23:02;;;;;;;3.45;1.40;;;19.00;99.90;;;;;;5003706;28;20088;-71
2023/09/25 11:25:27;;;;;;;2.00;0.80;;;18.90;99.90;;;;;;5015632;28;20040;-70
2023/09/25 11:27:55;;;;;;;3.63;1.05;;;18.90;99.90;;;;;;5012582;28;20559;-72
2023/09/25 11:30:26;;;;;;;2.97;0.85;;;19.00;99.90;;;;;;5004983;28;20080;-72
2023/09/25 11:32:52;;;;;;;3.72;0.80;;;19.00;99.90;;;;;;5008104;28;20061;-72
2023/09/25 11:35:21;;;;;;;1.70;0.77;;;19.00;99.90;;;;;;5013418;28;20064;-70
2023/09/25 11:37:58;;;;;;;4.22;0.85;;;19.20;99.90;;;;;;5014524;28;20498;-72
2023/09/25 11:40:25;;;;;;;1.67;0.90;;;19.20;99.90;;;;;;5009072;28;20030;-72
2023/09/25 11:42:51;;;;;;;2.05;0.68;;;19.30;99.90;;;;;;5002377;28;20653;-71
2023/09/25 11:45:17;;;;;;;1.90;0.80;;;19.40;99.90;;;;;;5007613;28;20829;-72
2023/09/25 11:47:43;;;;;;;1.30;0.60;;;19.40;99.90;;;;;;5004611;28;20124;-76
2023/09/25 11:50:11;;;;;;;3.13;0.80;;;19.50;99.90;;;;;;5002435;28;20034;-72
2023/09/25 11:52:37;;;;;;;3.25;0.90;;;19.50;99.90;;;;;;5005219;28;20042;-72
2023/09/25 11:55:08;;;;;;;1.83;0.75;;;19.50;99.90;;;;;;5015665;28;20094;-72
2023/09/25 11:57:33;;;;;;;2.10;0.68;;;19.60;99.90;;;;;;5011174;28;20042;-72
2023/09/25 11:59:59;;;;;;;2.28;0.82;;;19.60;99.90;;;;;;5013171;28;20599;-72
2023/09/25 12:02:25;;;;;;;2.53;0.50;;;19.70;99.90;;;;;;5012694;28;20091;-72
2023/09/25 12:04:54;;;;;;;2.00;0.80;;;19.70;99.90;;;;;;5008565;28;20033;-72
2023/09/25 12:07:20;;;;;;;3.75;0.88;;;19.80;99.90;;;;;;5003930;28;20037;-71
2023/09/25 12:09:46;;;;;;;2.30;0.68;;;20.00;99.90;;;;;;5013499;28;20029;-71
2023/09/25 12:12:12;;;;;;;2.03;0.70;;;20.10;99.90;;;;;;4998340;28;20022;-70
2023/09/25 12:14:38;;;;;;;4.65;1.00;;;20.20;99.90;;;;;;5007188;28;20663;-71
2023/09/25 12:17:03;;;;;;;3.42;0.90;;;20.20;99.90;;;;;;5004544;28;20046;-71
2023/09/25 12:19:29;;;;;;;3.63;0.80;;;20.10;99.90;;;;;;5001842;28;20386;-71
2023/09/25 12:21:54;;;;;;;4.20;0.77;;;20.10;99.90;;;;;;5003651;28;20382;-72
2023/09/25 12:24:20;;;;;;;2.78;0.98;;;20.10;99.90;;;;;;5014675;28;20617;-72
2023/09/25 12:26:46;;;;;;;1.85;0.70;;;20.00;99.90;;;;;;5016900;28;20034;-72
2023/09/25 12:29:12;;;;;;;5.00;0.52;;;20.10;99.90;;;;;;5006799;28;20387;-72
2023/09/25 12:31:38;;;;;;;1.90;0.70;;;20.10;99.90;;;;;;5003337;28;20056;-71
2023/09/25 12:34:03;;;;;;;4.80;1.25;;;20.10;99.90;;;;;;5014402;28;20033;-72
2023/09/25 12:36:29;;;;;;;2.38;0.60;;;20.10;99.90;;;;;;5006769;28;20101;-72
2023/09/25 12:38:54;;;;;;;1.60;0.60;;;20.10;99.90;;;;;;5019858;28;20151;-70
2023/09/25 12:41:21;;;;;;;1.88;0.68;;;20.10;99.90;;;;;;5015341;28;20493;-70
2023/09/25 12:43:46;;;;;;;2.28;0.90;;;20.10;99.90;;;;;;5001584;28;20409;-72
2023/09/25 12:46:12;;;;;;;6.35;0.93;;;20.00;99.90;;;;;;5014965;28;20034;-71
2023/09/25 12:48:38;;;;;;;7.13;0.77;;;20.10;99.90;;;;;;5014696;28;20034;-71